Hudgins, Virginia
Current Conditions -  °F | °C
As of 11:55 PM on Monday 20 Oct 2014 (Local Time) from KW75 Reporting Station
Clear Clear  
Wind Chill: 57°   Ceiling: Unl
Heat Index: 57°   Visibility: 10mi
Dew Point: 49°   Wind: 5mph
Humidity: 75%   Direction: 200°SSW
Pressure: 29.97"   Gusts: NA
Location:  37.47°N, 76.33°W
Report Text: KW75 210355Z AUTO 20004KT 10SM CLR 14/10 A2997 RMK AO1 T01380095
Loading
Personal Weather Stations






























Interactive Weather Map
Tropical Storm Tracking
New forecast layout! Learn more

10-Day Weather Forecast

Advertisements
Track Severe Weather on mobile